Time;durP1;ratioP1;P1;durP2;ratioP2;P2;SDS_P1;SDS_P2;PMS_P1;PMS_P2;Temp;Humidity;BMP_temperature;BMP_pressure;BME280_temperature;BME280_humidity;BME280_pressure;Samples;Min_cycle;Max_cycle;Signal;HPM_P1;HPM_P2
2023/07/23 00:01:19;;;;;;;8.30;5.82;;;;;;;;;;6155071;23;20097;-51
2023/07/23 00:03:45;;;;;;;8.00;5.53;;;;;;;;;;6154571;23;20018;-57
2023/07/23 00:06:12;;;;;;;6.35;4.70;;;;;;;;;;6154724;23;20044;-57
2023/07/23 00:08:40;;;;;;;6.38;4.65;;;;;;;;;;6154862;23;20434;-57
2023/07/23 00:11:06;;;;;;;7.25;4.85;;;;;;;;;;6153865;23;20022;-57
2023/07/23 00:13:33;;;;;;;6.65;4.28;;;;;;;;;;6153895;23;20231;-57
2023/07/23 00:15:59;;;;;;;5.93;4.05;;;;;;;;;;6150957;23;20017;-54
2023/07/23 00:18:26;;;;;;;6.25;3.90;;;;;;;;;;6155096;23;20322;-53
2023/07/23 00:20:53;;;;;;;5.68;3.72;;;;;;;;;;6154844;23;20102;-57
2023/07/23 00:23:19;;;;;;;5.85;3.58;;;;;;;;;;6155611;23;20113;-54
2023/07/23 00:25:47;;;;;;;5.80;3.95;;;;;;;;;;6154674;23;20021;-56
2023/07/23 00:28:14;;;;;;;5.88;4.10;;;;;;;;;;6154964;23;20027;-57
2023/07/23 00:30:41;;;;;;;6.18;4.00;;;;;;;;;;6154969;23;20022;-57
2023/07/23 00:33:07;;;;;;;6.47;4.35;;;;;;;;;;6154645;23;20026;-56
2023/07/23 00:35:35;;;;;;;6.13;3.78;;;;;;;;;;6154464;23;20017;-57
2023/07/23 00:38:01;;;;;;;6.55;3.80;;;;;;;;;;6154178;23;20024;-56
2023/07/23 00:40:28;;;;;;;7.88;4.28;;;;;;;;;;6154186;23;20032;-57
2023/07/23 00:42:56;;;;;;;5.03;3.40;;;;;;;;;;6154181;23;20033;-55
2023/07/23 00:45:24;;;;;;;7.35;4.28;;;;;;;;;;6154017;23;20018;-55
2023/07/23 00:47:50;;;;;;;7.05;4.20;;;;;;;;;;6154425;23;20052;-56
2023/07/23 00:50:17;;;;;;;5.90;3.50;;;;;;;;;;6154477;23;20044;-56
2023/07/23 00:52:44;;;;;;;5.68;3.58;;;;;;;;;;6154263;23;20095;-58
2023/07/23 00:55:11;;;;;;;5.75;3.60;;;;;;;;;;6154613;23;20468;-54
2023/07/23 00:57:37;;;;;;;6.60;3.95;;;;;;;;;;6154204;23;20096;-55
2023/07/23 01:00:08;;;;;;;6.55;3.75;;;;;;;;;;6154548;23;20093;-57
2023/07/23 01:02:35;;;;;;;5.32;3.58;;;;;;;;;;6154054;23;20021;-57
2023/07/23 01:05:02;;;;;;;6.72;4.28;;;;;;;;;;6154209;23;20017;-56
2023/07/23 01:07:31;;;;;;;6.35;3.67;;;;;;;;;;6154660;23;20021;-56
2023/07/23 01:09:58;;;;;;;6.85;3.90;;;;;;;;;;6154755;23;20032;-56
2023/07/23 01:12:26;;;;;;;5.85;3.85;;;;;;;;;;6154673;23;20022;-58
2023/07/23 01:14:52;;;;;;;6.35;3.90;;;;;;;;;;6154800;23;20021;-56
2023/07/23 01:17:21;;;;;;;5.20;3.80;;;;;;;;;;6154563;23;20018;-57
2023/07/23 01:19:58;;;;;;;6.18;3.92;;;;;;;;;;6154461;23;20026;-56
2023/07/23 01:22:26;;;;;;;5.32;3.50;;;;;;;;;;6154445;23;20037;-55
2023/07/23 01:24:53;;;;;;;6.47;3.78;;;;;;;;;;6154601;23;20022;-52
2023/07/23 01:27:19;;;;;;;5.68;4.13;;;;;;;;;;6154267;23;20096;-54
2023/07/23 01:29:46;;;;;;;7.30;4.75;;;;;;;;;;6154390;23;20018;-54
2023/07/23 01:32:12;;;;;;;7.90;5.32;;;;;;;;;;6153904;23;20028;-58
2023/07/23 01:34:39;;;;;;;6.43;4.45;;;;;;;;;;6154279;23;20121;-56
2023/07/23 01:37:06;;;;;;;7.13;4.28;;;;;;;;;;6154039;23;20024;-55
2023/07/23 01:39:36;;;;;;;5.97;4.75;;;;;;;;;;6153490;23;20406;-50
2023/07/23 01:42:03;;;;;;;7.45;4.68;;;;;;;;;;6153816;23;20022;-53
2023/07/23 01:44:30;;;;;;;8.80;4.60;;;;;;;;;;6153864;23;20029;-56
2023/07/23 01:46:57;;;;;;;6.22;4.18;;;;;;;;;;6154150;23;20017;-56
2023/07/23 01:49:23;;;;;;;6.22;4.20;;;;;;;;;;6153548;23;20017;-53
2023/07/23 01:51:50;;;;;;;6.50;4.68;;;;;;;;;;6153311;23;20021;-57
2023/07/23 01:54:16;;;;;;;6.97;5.10;;;;;;;;;;6154028;23;20032;-56
2023/07/23 01:56:44;;;;;;;7.22;5.13;;;;;;;;;;6153684;23;20096;-51
2023/07/23 01:59:11;;;;;;;7.25;5.63;;;;;;;;;;6153782;23;20028;-53
2023/07/23 02:01:37;;;;;;;7.43;5.38;;;;;;;;;;6153934;23;20057;-58
2023/07/23 02:04:04;;;;;;;7.30;5.45;;;;;;;;;;6154216;23;20489;-54
2023/07/23 02:06:31;;;;;;;7.60;5.18;;;;;;;;;;6153902;23;20049;-55
2023/07/23 02:08:58;;;;;;;7.43;5.05;;;;;;;;;;6154230;23;20085;-57
2023/07/23 02:11:24;;;;;;;7.70;5.60;;;;;;;;;;6154023;23;20457;-56
2023/07/23 02:13:52;;;;;;;7.85;5.47;;;;;;;;;;6154054;23;20051;-57
2023/07/23 02:16:19;;;;;;;7.43;5.13;;;;;;;;;;6155178;23;20456;-53
2023/07/23 02:18:46;;;;;;;7.03;4.80;;;;;;;;;;6156160;23;20100;-56
2023/07/23 02:21:13;;;;;;;6.88;4.40;;;;;;;;;;6155669;23;20018;-52
2023/07/23 02:23:39;;;;;;;6.50;4.47;;;;;;;;;;6155357;23;20353;-59
2023/07/23 02:26:06;;;;;;;7.25;4.78;;;;;;;;;;6155644;23;20101;-55
2023/07/23 02:28:33;;;;;;;6.72;4.60;;;;;;;;;;6155749;23;20056;-57
2023/07/23 02:31:01;;;;;;;6.75;4.60;;;;;;;;;;6155739;23;20360;-55
2023/07/23 02:33:27;;;;;;;6.15;4.32;;;;;;;;;;6155773;23;20021;-56
2023/07/23 02:35:54;;;;;;;7.25;4.40;;;;;;;;;;6155941;23;20097;-57
2023/07/23 02:38:20;;;;;;;8.60;4.30;;;;;;;;;;6155490;23;20022;-57
2023/07/23 02:40:47;;;;;;;6.75;4.68;;;;;;;;;;6155939;23;20441;-56
2023/07/23 02:43:14;;;;;;;7.05;4.22;;;;;;;;;;6155745;23;20097;-54
2023/07/23 02:45:40;;;;;;;6.25;3.85;;;;;;;;;;6154835;23;20032;-53
2023/07/23 02:48:08;;;;;;;6.53;4.00;;;;;;;;;;6155757;23;20100;-56
2023/07/23 02:50:35;;;;;;;5.32;3.63;;;;;;;;;;6155148;23;20092;-57
2023/07/23 02:53:02;;;;;;;5.47;3.47;;;;;;;;;;6155467;23;20044;-57
2023/07/23 02:55:28;;;;;;;5.72;3.70;;;;;;;;;;6155402;23;20349;-54
2023/07/23 02:57:55;;;;;;;5.57;3.58;;;;;;;;;;6154932;23;20096;-55
2023/07/23 03:00:21;;;;;;;5.97;3.80;;;;;;;;;;6155104;23;20028;-56
2023/07/23 03:02:49;;;;;;;6.88;4.20;;;;;;;;;;6155551;23;20021;-56
2023/07/23 03:05:17;;;;;;;8.15;4.50;;;;;;;;;;6155713;23;20453;-54
2023/07/23 03:07:43;;;;;;;8.13;4.40;;;;;;;;;;6155058;23;20022;-56
2023/07/23 03:10:11;;;;;;;6.88;4.60;;;;;;;;;;6155338;23;20018;-56
2023/07/23 03:12:37;;;;;;;5.60;3.70;;;;;;;;;;6154822;23;20017;-54
2023/07/23 03:15:05;;;;;;;6.57;4.40;;;;;;;;;;6155213;23;20032;-56
2023/07/23 03:17:31;;;;;;;6.72;4.25;;;;;;;;;;6155331;23;20449;-56
2023/07/23 03:19:58;;;;;;;6.10;4.18;;;;;;;;;;6155046;23;20044;-55
2023/07/23 03:22:26;;;;;;;5.90;4.10;;;;;;;;;;6154574;23;20048;-57
2023/07/23 03:24:53;;;;;;;7.25;5.00;;;;;;;;;;6155044;23;20021;-57
2023/07/23 03:27:19;;;;;;;6.72;4.22;;;;;;;;;;6155034;23;20492;-55
2023/07/23 03:29:46;;;;;;;7.53;4.47;;;;;;;;;;6155200;23;20045;-55
2023/07/23 03:32:12;;;;;;;8.00;4.82;;;;;;;;;;6154566;23;20160;-57
2023/07/23 03:34:39;;;;;;;5.78;3.72;;;;;;;;;;6155231;23;20377;-56
2023/07/23 03:37:06;;;;;;;8.10;4.50;;;;;;;;;;6154891;23;20029;-56
2023/07/23 03:39:34;;;;;;;6.72;3.95;;;;;;;;;;6155176;23;20464;-55
2023/07/23 03:42:01;;;;;;;6.80;4.18;;;;;;;;;;6154501;23;20100;-57
2023/07/23 03:44:28;;;;;;;7.30;4.50;;;;;;;;;;6155256;23;20021;-57
2023/07/23 03:47:10;;;;;;;5.70;4.30;;;;;;;;;;6154898;23;20096;-57
2023/07/23 03:49:36;;;;;;;6.55;4.57;;;;;;;;;;6155034;23;20100;-56
2023/07/23 03:52:04;;;;;;;7.57;4.65;;;;;;;;;;6154778;23;20017;-57
2023/07/23 03:54:31;;;;;;;7.47;4.55;;;;;;;;;;6154412;23;20029;-58
2023/07/23 03:56:59;;;;;;;7.20;4.38;;;;;;;;;;6155056;23;20018;-57
2023/07/23 03:59:29;;;;;;;6.78;4.18;;;;;;;;;;6154982;23;20124;-58
2023/07/23 04:01:56;;;;;;;5.35;3.60;;;;;;;;;;6155072;23;20027;-56
2023/07/23 04:04:23;;;;;;;5.80;3.60;;;;;;;;;;6155179;23;20026;-57
2023/07/23 04:06:50;;;;;;;6.55;3.83;;;;;;;;;;6155281;23;20060;-56
2023/07/23 04:09:16;;;;;;;6.55;3.85;;;;;;;;;;6154742;23;20026;-57
2023/07/23 04:11:43;;;;;;;5.97;4.03;;;;;;;;;;6154546;23;20028;-55
2023/07/23 04:14:11;;;;;;;5.45;3.78;;;;;;;;;;6154283;23;20021;-56
2023/07/23 04:16:37;;;;;;;7.38;4.28;;;;;;;;;;6154976;23;20049;-56
2023/07/23 04:19:04;;;;;;;6.55;4.55;;;;;;;;;;6154654;23;20024;-55
2023/07/23 04:21:31;;;;;;;6.50;4.22;;;;;;;;;;6154747;23;20021;-56
2023/07/23 04:23:58;;;;;;;6.72;4.28;;;;;;;;;;6154814;23;20365;-56
2023/07/23 04:26:27;;;;;;;5.90;3.63;;;;;;;;;;6155063;23;20021;-57
2023/07/23 04:28:54;;;;;;;8.52;4.10;;;;;;;;;;6154948;23;20025;-56
2023/07/23 04:31:22;;;;;;;5.57;4.05;;;;;;;;;;6154808;23;20049;-56
2023/07/23 04:33:48;;;;;;;6.85;3.90;;;;;;;;;;6154435;23;20460;-56
2023/07/23 04:36:15;;;;;;;5.80;3.60;;;;;;;;;;6154539;23;20025;-54
2023/07/23 04:38:43;;;;;;;5.60;3.72;;;;;;;;;;6154548;23;20040;-57
2023/07/23 04:41:10;;;;;;;5.20;3.60;;;;;;;;;;6154620;23;20021;-56
2023/07/23 04:43:38;;;;;;;5.63;3.60;;;;;;;;;;6154547;23;20404;-58
2023/07/23 04:46:05;;;;;;;6.85;3.90;;;;;;;;;;6154664;23;20178;-54
2023/07/23 04:48:33;;;;;;;6.72;3.63;;;;;;;;;;6154550;23;20018;-57
2023/07/23 04:51:01;;;;;;;5.25;3.38;;;;;;;;;;6153994;23;20076;-56
2023/07/23 04:53:27;;;;;;;5.95;3.50;;;;;;;;;;6154317;23;20073;-55
2023/07/23 04:55:55;;;;;;;6.47;3.75;;;;;;;;;;6153898;23;20026;-56
2023/07/23 04:58:23;;;;;;;5.43;3.65;;;;;;;;;;6154680;23;20408;-56
2023/07/23 05:00:50;;;;;;;6.20;3.60;;;;;;;;;;6154080;23;20025;-54
2023/07/23 05:03:17;;;;;;;6.05;3.70;;;;;;;;;;6154711;23;20358;-56
2023/07/23 05:05:47;;;;;;;5.57;3.30;;;;;;;;;;6154755;23;20021;-56
2023/07/23 05:08:14;;;;;;;4.97;3.22;;;;;;;;;;6154867;23;20528;-57
2023/07/23 05:10:40;;;;;;;5.45;3.63;;;;;;;;;;6154351;23;20025;-56
2023/07/23 05:13:07;;;;;;;5.38;3.53;;;;;;;;;;6154375;23;20021;-57
2023/07/23 05:15:33;;;;;;;4.90;3.33;;;;;;;;;;6154240;23;20024;-57
2023/07/23 05:18:00;;;;;;;5.97;3.35;;;;;;;;;;6154567;23;20032;-57
2023/07/23 05:20:27;;;;;;;6.95;3.20;;;;;;;;;;6154727;23;20017;-53
2023/07/23 05:22:55;;;;;;;5.65;3.38;;;;;;;;;;6154193;23;20089;-58
2023/07/23 05:25:22;;;;;;;6.63;3.63;;;;;;;;;;6154179;23;20022;-57
2023/07/23 05:27:49;;;;;;;5.53;3.40;;;;;;;;;;6154717;23;20445;-54
2023/07/23 05:30:17;;;;;;;6.00;3.55;;;;;;;;;;6154692;23;20305;-58
2023/07/23 05:32:43;;;;;;;6.15;3.65;;;;;;;;;;6154029;23;20048;-57
2023/07/23 05:35:10;;;;;;;5.68;3.25;;;;;;;;;;6154704;23;20100;-58
2023/07/23 05:37:37;;;;;;;5.40;3.25;;;;;;;;;;6154128;23;20018;-56
2023/07/23 05:40:06;;;;;;;6.35;3.08;;;;;;;;;;6154370;23;20017;-56
2023/07/23 05:42:33;;;;;;;6.20;3.33;;;;;;;;;;6154733;23;20097;-56
2023/07/23 05:45:00;;;;;;;5.50;3.58;;;;;;;;;;6154429;23;20067;-56
2023/07/23 05:47:26;;;;;;;5.65;3.10;;;;;;;;;;6154433;23;20026;-55
2023/07/23 05:49:53;;;;;;;4.82;2.97;;;;;;;;;;6154532;23;20373;-56
2023/07/23 05:52:20;;;;;;;4.82;3.10;;;;;;;;;;6153862;23;20104;-55
2023/07/23 05:54:46;;;;;;;5.32;2.95;;;;;;;;;;6154609;23;20028;-57
2023/07/23 05:57:14;;;;;;;5.05;3.05;;;;;;;;;;6154477;23;20500;-55
2023/07/23 05:59:41;;;;;;;5.25;3.35;;;;;;;;;;6154271;23;20026;-56
2023/07/23 06:02:09;;;;;;;5.93;3.25;;;;;;;;;;6154187;23;20345;-56
2023/07/23 06:04:36;;;;;;;5.55;3.25;;;;;;;;;;6154293;23;20348;-53
2023/07/23 06:07:03;;;;;;;5.78;3.20;;;;;;;;;;6154164;23;20100;-53
2023/07/23 06:09:29;;;;;;;5.03;3.33;;;;;;;;;;6153808;23;20096;-56
2023/07/23 06:11:56;;;;;;;6.53;4.05;;;;;;;;;;6153802;23;20018;-53
2023/07/23 06:14:24;;;;;;;6.22;4.47;;;;;;;;;;6153273;23;20352;-57
2023/07/23 06:16:50;;;;;;;5.57;3.33;;;;;;;;;;6146892;23;20098;-77
2023/07/23 06:19:17;;;;;;;5.95;3.70;;;;;;;;;;6157086;23;20025;-80
2023/07/23 06:21:44;;;;;;;5.10;3.10;;;;;;;;;;6158904;23;20339;-81
2023/07/23 06:24:10;;;;;;;5.45;3.58;;;;;;;;;;6159898;23;20096;-80
2023/07/23 06:26:37;;;;;;;5.10;3.10;;;;;;;;;;6159313;23;20470;-79
2023/07/23 06:29:05;;;;;;;7.32;3.55;;;;;;;;;;6159637;23;20017;-81
2023/07/23 06:31:33;;;;;;;6.35;3.40;;;;;;;;;;6160794;23;20018;-79
2023/07/23 06:34:00;;;;;;;6.30;3.53;;;;;;;;;;6159852;23;20040;-80
2023/07/23 06:36:26;;;;;;;5.38;3.22;;;;;;;;;;6160314;23;20045;-80
2023/07/23 06:38:53;;;;;;;5.22;3.40;;;;;;;;;;6160527;23;20489;-80
2023/07/23 06:41:19;;;;;;;5.13;3.22;;;;;;;;;;6163788;23;20028;-80
2023/07/23 06:43:46;;;;;;;5.60;3.30;;;;;;;;;;6166856;23;20029;-79
2023/07/23 06:46:17;;;;;;;5.47;3.20;;;;;;;;;;6164380;23;20022;-79
2023/07/23 06:48:45;;;;;;;4.75;2.72;;;;;;;;;;6163952;23;20101;-80
2023/07/23 06:51:11;;;;;;;5.35;2.97;;;;;;;;;;6161972;23;20029;-79
2023/07/23 06:53:38;;;;;;;4.63;3.17;;;;;;;;;;6159727;23;20018;-81
2023/07/23 06:56:06;;;;;;;5.72;3.20;;;;;;;;;;6158768;23;20041;-80
2023/07/23 06:58:34;;;;;;;5.47;3.45;;;;;;;;;;6161297;23;20021;-81
2023/07/23 07:01:01;;;;;;;5.43;3.20;;;;;;;;;;6162591;23;20024;-81
2023/07/23 07:03:28;;;;;;;6.38;3.50;;;;;;;;;;6163701;23;20525;-82
2023/07/23 07:05:56;;;;;;;5.10;3.22;;;;;;;;;;6163187;23;20092;-81
2023/07/23 07:08:23;;;;;;;4.80;2.75;;;;;;;;;;6162336;23;20021;-81
2023/07/23 07:10:49;;;;;;;5.75;3.05;;;;;;;;;;6161905;23;20028;-81
2023/07/23 07:13:16;;;;;;;4.82;2.83;;;;;;;;;;6163160;23;20218;-81
2023/07/23 07:15:43;;;;;;;5.57;2.95;;;;;;;;;;6163102;23;20028;-81
2023/07/23 07:18:09;;;;;;;4.50;2.72;;;;;;;;;;6164377;23;20069;-81
2023/07/23 07:20:36;;;;;;;4.40;2.90;;;;;;;;;;6172041;23;20104;-81
2023/07/23 07:23:04;;;;;;;4.95;2.80;;;;;;;;;;6169802;23;20018;-81
2023/07/23 07:25:30;;;;;;;4.40;2.80;;;;;;;;;;6180267;23;20009;-81
2023/07/23 07:27:57;;;;;;;7.15;3.42;;;;;;;;;;6169579;23;20021;-81
2023/07/23 07:30:23;;;;;;;7.47;3.00;;;;;;;;;;6173292;23;20022;-81
2023/07/23 07:32:52;;;;;;;4.43;2.78;;;;;;;;;;6166846;23;20426;-81
2023/07/23 07:35:18;;;;;;;5.28;3.22;;;;;;;;;;6160862;23;20041;-81
2023/07/23 07:37:45;;;;;;;4.70;3.00;;;;;;;;;;6159715;23;20488;-79
2023/07/23 07:40:13;;;;;;;5.43;3.30;;;;;;;;;;6161129;23;20025;-81
2023/07/23 07:42:41;;;;;;;5.15;2.60;;;;;;;;;;6163098;23;20049;-80
2023/07/23 07:45:08;;;;;;;5.15;2.90;;;;;;;;;;6161125;23;20021;-80
2023/07/23 07:47:35;;;;;;;4.70;2.92;;;;;;;;;;6161186;23;20025;-80
2023/07/23 07:50:03;;;;;;;5.25;2.90;;;;;;;;;;6161804;23;20028;-80
2023/07/23 07:52:29;;;;;;;4.70;3.05;;;;;;;;;;6161396;23;20021;-80
2023/07/23 07:54:59;;;;;;;4.97;2.75;;;;;;;;;;6161109;23;20024;-80
2023/07/23 07:57:27;;;;;;;5.10;2.95;;;;;;;;;;6166050;23;20021;-79
2023/07/23 07:59:54;;;;;;;4.82;2.88;;;;;;;;;;6170936;23;20025;-80
2023/07/23 08:02:21;;;;;;;4.80;2.75;;;;;;;;;;6163639;23;20025;-81
2023/07/23 08:04:49;;;;;;;4.82;3.30;;;;;;;;;;6161385;23;20018;-80
2023/07/23 08:07:16;;;;;;;4.88;2.92;;;;;;;;;;6160752;23;20026;-80
2023/07/23 08:09:44;;;;;;;5.15;2.80;;;;;;;;;;6164756;23;20084;-80
2023/07/23 08:12:12;;;;;;;4.32;2.45;;;;;;;;;;6166928;23;20051;-80
2023/07/23 08:14:40;;;;;;;4.53;2.60;;;;;;;;;;6157442;23;20041;-80
2023/07/23 08:17:08;;;;;;;4.55;2.80;;;;;;;;;;6159022;23;20057;-81
2023/07/23 08:19:35;;;;;;;4.13;2.53;;;;;;;;;;6160524;23;20414;-81
2023/07/23 08:22:02;;;;;;;5.32;3.10;;;;;;;;;;6164759;23;20053;-81
2023/07/23 08:24:29;;;;;;;4.13;2.65;;;;;;;;;;6162315;23;20022;-81
2023/07/23 08:26:59;;;;;;;5.35;3.00;;;;;;;;;;6161474;23;20425;-81
2023/07/23 08:29:29;;;;;;;4.35;2.97;;;;;;;;;;6159900;23;20086;-81
2023/07/23 08:31:57;;;;;;;4.10;2.60;;;;;;;;;;6161106;23;20056;-81
2023/07/23 08:34:25;;;;;;;5.25;2.97;;;;;;;;;;6161190;23;20018;-81
2023/07/23 08:36:54;;;;;;;4.07;2.70;;;;;;;;;;6161609;23;20029;-82
2023/07/23 08:39:21;;;;;;;4.78;2.92;;;;;;;;;;6161213;23;20346;-79
2023/07/23 08:42:08;;;;;;;4.72;2.90;;;;;;;;;;6159324;23;20069;-81
2023/07/23 08:45:08;;;;;;;4.35;2.30;;;;;;;;;;6159684;23;20029;-81
2023/07/23 08:47:38;;;;;;;4.10;2.42;;;;;;;;;;6167447;23;20052;-81
2023/07/23 08:50:06;;;;;;;4.47;2.42;;;;;;;;;;6170928;23;20017;-80
2023/07/23 08:52:34;;;;;;;4.70;2.45;;;;;;;;;;6161082;23;20101;-81
2023/07/23 08:55:01;;;;;;;4.38;2.55;;;;;;;;;;6159902;23;20018;-81
2023/07/23 08:57:28;;;;;;;3.78;2.42;;;;;;;;;;6160445;23;20027;-81
2023/07/23 08:59:56;;;;;;;5.80;2.92;;;;;;;;;;6160903;23;20028;-82
2023/07/23 09:02:25;;;;;;;4.85;2.67;;;;;;;;;;6161026;23;20033;-81
2023/07/23 09:04:53;;;;;;;4.93;2.75;;;;;;;;;;6160922;23;20060;-82
2023/07/23 09:07:21;;;;;;;4.60;2.63;;;;;;;;;;6161285;23;20065;-81
2023/07/23 09:09:48;;;;;;;4.60;2.67;;;;;;;;;;6160787;23;20017;-81
2023/07/23 09:12:15;;;;;;;4.90;2.33;;;;;;;;;;6160846;23;20092;-81
2023/07/23 09:14:42;;;;;;;5.07;3.00;;;;;;;;;;6159910;23;20097;-81
2023/07/23 09:17:18;;;;;;;4.50;2.47;;;;;;;;;;6161663;23;20072;-80
2023/07/23 09:19:44;;;;;;;6.35;2.92;;;;;;;;;;6159349;23;20024;-81
2023/07/23 09:22:12;;;;;;;4.65;2.80;;;;;;;;;;6160455;23;20018;-81
2023/07/23 09:24:39;;;;;;;4.90;2.72;;;;;;;;;;6161101;23;20060;-81
2023/07/23 09:27:10;;;;;;;5.18;2.63;;;;;;;;;;6162339;23;20438;-83
2023/07/23 09:29:38;;;;;;;5.18;2.97;;;;;;;;;;6158506;23;20080;-81
2023/07/23 09:32:16;;;;;;;4.93;3.13;;;;;;;;;;6158526;23;20350;-81
2023/07/23 09:34:43;;;;;;;5.03;2.72;;;;;;;;;;6157244;23;20093;-81
2023/07/23 09:37:11;;;;;;;4.78;2.83;;;;;;;;;;6156700;23;20021;-81
2023/07/23 09:39:38;;;;;;;5.30;2.90;;;;;;;;;;6173273;23;20073;-80
2023/07/23 09:42:05;;;;;;;6.07;2.72;;;;;;;;;;6173395;23;20021;-82
2023/07/23 09:44:32;;;;;;;6.25;2.92;;;;;;;;;;6164735;23;20097;-82
2023/07/23 09:46:59;;;;;;;6.60;3.53;;;;;;;;;;6163057;23;20354;-80
2023/07/23 09:49:29;;;;;;;6.30;2.97;;;;;;;;;;6163067;23;20291;-82
2023/07/23 09:51:55;;;;;;;5.40;2.97;;;;;;;;;;6172150;23;20018;-81
2023/07/23 09:54:24;;;;;;;4.88;2.90;;;;;;;;;;6174885;23;20045;-82
2023/07/23 09:56:51;;;;;;;4.65;2.83;;;;;;;;;;6173979;23;20021;-81
2023/07/23 09:59:18;;;;;;;5.50;2.95;;;;;;;;;;6175645;23;20101;-80
2023/07/23 10:01:46;;;;;;;5.22;2.80;;;;;;;;;;6180085;23;20080;-81
2023/07/23 10:04:16;;;;;;;4.93;2.45;;;;;;;;;;6179782;23;20025;-81
2023/07/23 10:06:44;;;;;;;6.43;2.72;;;;;;;;;;6178536;23;20025;-81
2023/07/23 10:09:13;;;;;;;5.60;3.22;;;;;;;;;;6179315;23;20085;-81
2023/07/23 10:11:41;;;;;;;4.93;2.95;;;;;;;;;;6170274;23;20022;-82
2023/07/23 10:14:08;;;;;;;5.53;3.10;;;;;;;;;;6163764;23;20032;-81
2023/07/23 10:16:39;;;;;;;6.30;3.63;;;;;;;;;;6161248;23;20026;-79
2023/07/23 10:19:06;;;;;;;6.10;3.33;;;;;;;;;;6162436;23;20021;-81
2023/07/23 10:21:34;;;;;;;6.03;3.28;;;;;;;;;;6161890;23;20131;-82
2023/07/23 10:24:03;;;;;;;5.82;3.45;;;;;;;;;;6163359;23;20018;-82
2023/07/23 10:26:31;;;;;;;6.32;3.50;;;;;;;;;;6165102;23;20021;-82
2023/07/23 10:29:09;;;;;;;5.93;3.80;;;;;;;;;;6163299;23;20029;-82
2023/07/23 10:31:38;;;;;;;6.43;3.65;;;;;;;;;;6162371;23;20100;-83
2023/07/23 10:34:43;;;;;;;5.13;3.08;;;;;;;;;;6165526;23;20032;-82
2023/07/23 10:37:14;;;;;;;6.32;3.70;;;;;;;;;;6163698;23;20143;-83
2023/07/23 10:39:42;;;;;;;6.60;3.50;;;;;;;;;;6163800;23;20017;-85
2023/07/23 10:42:09;;;;;;;5.43;3.35;;;;;;;;;;6164783;23;20070;-83
2023/07/23 10:44:39;;;;;;;6.40;3.80;;;;;;;;;;6167128;23;20052;-83
2023/07/23 10:47:31;;;;;;;7.05;3.92;;;;;;;;;;6164547;23;20033;-85
2023/07/23 10:50:17;;;;;;;6.43;3.70;;;;;;;;;;6144050;23;20017;-89
2023/07/23 10:53:02;;;;;;;5.22;3.20;;;;;;;;;;6163837;23;20022;-85
2023/07/23 10:55:45;;;;;;;5.80;3.75;;;;;;;;;;6169802;23;20018;-84
2023/07/23 10:58:12;;;;;;;6.13;4.07;;;;;;;;;;6173316;23;20021;-83
2023/07/23 11:00:47;;;;;;;7.65;4.78;;;;;;;;;;6162850;23;20072;-86
2023/07/23 11:03:16;;;;;;;10.35;5.65;;;;;;;;;;6161854;23;20052;-81
2023/07/23 11:05:43;;;;;;;10.23;5.63;;;;;;;;;;6160544;23;20466;-80
2023/07/23 11:08:17;;;;;;;7.22;5.05;;;;;;;;;;6159056;23;20018;-79
2023/07/23 11:10:48;;;;;;;7.80;4.85;;;;;;;;;;6159851;23;20040;-80
2023/07/23 11:13:15;;;;;;;8.75;5.22;;;;;;;;;;6159005;23;20023;-80
2023/07/23 11:15:45;;;;;;;8.02;4.82;;;;;;;;;;6160246;23;20025;-80
2023/07/23 11:18:11;;;;;;;;;;;;;;;;;;6159003;23;20430;-82
2023/07/23 11:20:38;;;;;;;7.90;5.18;;;;;;;;;;6158536;23;19995;-78
2023/07/23 11:23:06;;;;;;;8.70;4.80;;;;;;;;;;6160023;23;20097;-80
2023/07/23 11:25:33;;;;;;;7.38;4.80;;;;;;;;;;6160174;23;20032;-80
2023/07/23 11:27:59;;;;;;;8.05;5.28;;;;;;;;;;6161599;23;20141;-81
2023/07/23 11:30:26;;;;;;;8.25;4.60;;;;;;;;;;6165179;23;20021;-81
2023/07/23 11:32:55;;;;;;;8.35;5.28;;;;;;;;;;6160911;23;20037;-81
2023/07/23 11:35:21;;;;;;;10.35;4.78;;;;;;;;;;6163348;23;20032;-81
2023/07/23 11:37:49;;;;;;;9.77;5.57;;;;;;;;;;6166512;23;20017;-81
2023/07/23 11:40:20;;;;;;;7.15;4.43;;;;;;;;;;6162195;23;20084;-82
2023/07/23 11:42:46;;;;;;;7.75;4.72;;;;;;;;;;6160489;23;20098;-81
2023/07/23 11:45:13;;;;;;;7.72;4.30;;;;;;;;;;6162001;23;20025;-80
2023/07/23 11:47:47;;;;;;;6.80;4.03;;;;;;;;;;6158416;23;20101;-78
2023/07/23 11:50:15;;;;;;;8.82;5.07;;;;;;;;;;6158326;23;20017;-78
2023/07/23 11:52:42;;;;;;;7.60;5.25;;;;;;;;;;6158328;23;20022;-79
2023/07/23 11:55:19;;;;;;;7.65;4.55;;;;;;;;;;6161160;23;20029;-79
2023/07/23 11:57:46;;;;;;;7.88;4.65;;;;;;;;;;6160414;23;20022;-82
2023/07/23 12:00:13;;;;;;;8.57;5.28;;;;;;;;;;6160514;23;20108;-82
2023/07/23 12:02:40;;;;;;;8.35;4.90;;;;;;;;;;6160522;23;20056;-81
2023/07/23 12:05:12;;;;;;;7.85;5.45;;;;;;;;;;6162923;23;20025;-86
2023/07/23 12:07:52;;;;;;;25.02;7.05;;;;;;;;;;6161080;23;20021;-87
2023/07/23 12:10:19;;;;;;;8.40;4.70;;;;;;;;;;6161470;23;20029;-82
2023/07/23 12:12:46;;;;;;;8.15;4.80;;;;;;;;;;6160592;23;20025;-82
2023/07/23 12:15:14;;;;;;;8.00;4.75;;;;;;;;;;6160466;23;20099;-79
2023/07/23 12:17:42;;;;;;;7.95;4.80;;;;;;;;;;6161031;23;20029;-82
2023/07/23 12:20:09;;;;;;;8.70;5.00;;;;;;;;;;6147543;23;20470;-75
2023/07/23 12:22:50;;;;;;;7.47;4.88;;;;;;;;;;6154906;23;20026;-75
2023/07/23 12:25:17;;;;;;;7.90;4.40;;;;;;;;;;6155207;23;20028;-75
2023/07/23 12:27:44;;;;;;;7.00;4.68;;;;;;;;;;6155129;23;20500;-75
2023/07/23 12:30:11;;;;;;;6.97;4.63;;;;;;;;;;6154623;23;20481;-75
2023/07/23 12:32:38;;;;;;;7.90;4.70;;;;;;;;;;6155656;23;20045;-76
2023/07/23 12:35:05;;;;;;;7.97;4.78;;;;;;;;;;6155211;23;20025;-75
2023/07/23 12:37:34;;;;;;;8.80;5.18;;;;;;;;;;6155402;23;20052;-75
2023/07/23 12:40:04;;;;;;;8.57;5.18;;;;;;;;;;6155160;23;20029;-75
2023/07/23 12:42:31;;;;;;;9.10;5.60;;;;;;;;;;6158144;23;20024;-79
2023/07/23 12:44:57;;;;;;;7.75;5.15;;;;;;;;;;6155379;23;20026;-76
2023/07/23 12:47:26;;;;;;;8.20;5.25;;;;;;;;;;6154547;23;20032;-75
2023/07/23 12:49:54;;;;;;;9.23;5.15;;;;;;;;;;6154580;23;20029;-76
2023/07/23 12:52:21;;;;;;;7.55;4.97;;;;;;;;;;6154727;23;20022;-76
2023/07/23 12:54:48;;;;;;;9.00;5.13;;;;;;;;;;6155018;23;20093;-75
2023/07/23 12:57:16;;;;;;;9.68;5.53;;;;;;;;;;6155011;23;20026;-76
2023/07/23 12:59:43;;;;;;;8.00;4.97;;;;;;;;;;6154337;23;20028;-76
2023/07/23 13:02:10;;;;;;;8.55;5.10;;;;;;;;;;6154656;23;20056;-75
2023/07/23 13:04:37;;;;;;;7.80;5.05;;;;;;;;;;6154760;23;20014;-76
2023/07/23 13:07:04;;;;;;;8.80;5.93;;;;;;;;;;6155081;23;20025;-75
2023/07/23 13:09:30;;;;;;;9.88;5.40;;;;;;;;;;6157343;23;20053;-85
2023/07/23 13:11:57;;;;;;;8.93;5.15;;;;;;;;;;6153369;23;20017;-75
2023/07/23 13:14:25;;;;;;;9.07;5.55;;;;;;;;;;6154694;23;20025;-76
2023/07/23 13:16:51;;;;;;;7.97;5.40;;;;;;;;;;6154152;23;20122;-75
2023/07/23 13:19:18;;;;;;;8.50;5.05;;;;;;;;;;6154213;23;20024;-75
2023/07/23 13:21:44;;;;;;;7.72;5.35;;;;;;;;;;6153972;23;20020;-75
2023/07/23 13:24:11;;;;;;;9.27;5.50;;;;;;;;;;6154576;23;20021;-75
2023/07/23 13:26:38;;;;;;;9.63;5.55;;;;;;;;;;6154928;23;20029;-73
2023/07/23 13:29:04;;;;;;;8.32;4.80;;;;;;;;;;6154732;23;20032;-75
2023/07/23 13:31:32;;;;;;;8.48;5.95;;;;;;;;;;6154065;23;20028;-75
2023/07/23 13:34:00;;;;;;;8.65;5.75;;;;;;;;;;6154403;23;20025;-75
2023/07/23 13:36:26;;;;;;;8.52;5.57;;;;;;;;;;6154478;23;20299;-75
2023/07/23 13:38:53;;;;;;;8.63;5.03;;;;;;;;;;6154564;23;20023;-75
2023/07/23 13:41:19;;;;;;;9.40;5.18;;;;;;;;;;6154078;23;20024;-75
2023/07/23 13:43:46;;;;;;;8.38;5.75;;;;;;;;;;6154744;23;20029;-75
2023/07/23 13:46:12;;;;;;;13.15;5.63;;;;;;;;;;6154082;23;20496;-75
2023/07/23 13:48:40;;;;;;;8.48;4.80;;;;;;;;;;6154523;23;20021;-75
2023/07/23 13:51:07;;;;;;;7.55;5.20;;;;;;;;;;6153888;23;20390;-75
2023/07/23 13:53:33;;;;;;;7.38;4.90;;;;;;;;;;6154432;23;20043;-75
2023/07/23 13:56:00;;;;;;;7.75;5.40;;;;;;;;;;6154575;23;20021;-75
2023/07/23 13:58:26;;;;;;;7.90;5.25;;;;;;;;;;6154350;23;20018;-75
2023/07/23 14:00:53;;;;;;;9.85;5.20;;;;;;;;;;6153875;23;20546;-75
2023/07/23 14:03:19;;;;;;;9.55;5.43;;;;;;;;;;6154020;23;20025;-75
2023/07/23 14:05:47;;;;;;;8.25;5.30;;;;;;;;;;6154305;23;20025;-75
2023/07/23 14:08:14;;;;;;;15.70;5.78;;;;;;;;;;6154250;23;20018;-75
2023/07/23 14:10:40;;;;;;;8.65;5.38;;;;;;;;;;6154250;23;20028;-76
2023/07/23 14:13:07;;;;;;;8.90;5.57;;;;;;;;;;6157650;23;20093;-75
2023/07/23 14:15:33;;;;;;;8.27;5.50;;;;;;;;;;6157809;23;20044;-75
2023/07/23 14:18:00;;;;;;;8.65;5.50;;;;;;;;;;6157456;23;20018;-76
2023/07/23 14:20:27;;;;;;;9.57;5.35;;;;;;;;;;6156964;23;20017;-75
2023/07/23 14:22:55;;;;;;;9.25;5.70;;;;;;;;;;6156961;23;20334;-76
2023/07/23 14:25:21;;;;;;;9.38;5.90;;;;;;;;;;6157348;23;20049;-76
2023/07/23 14:27:48;;;;;;;8.98;6.60;;;;;;;;;;6157601;23;20025;-76
2023/07/23 14:30:16;;;;;;;9.68;6.85;;;;;;;;;;6157122;23;20017;-76
2023/07/23 14:32:43;;;;;;;8.55;6.43;;;;;;;;;;6156781;23;20021;-76
2023/07/23 14:35:10;;;;;;;9.32;6.10;;;;;;;;;;6156878;23;20354;-76
2023/07/23 14:37:36;;;;;;;10.60;6.38;;;;;;;;;;6157294;23;20076;-75
2023/07/23 14:40:07;;;;;;;11.35;7.30;;;;;;;;;;6157115;23;20018;-76
2023/07/23 14:42:33;;;;;;;11.80;7.28;;;;;;;;;;6156947;23;20362;-76
2023/07/23 14:45:00;;;;;;;12.18;7.15;;;;;;;;;;6157387;23;20097;-75
2023/07/23 14:47:27;;;;;;;9.52;6.88;;;;;;;;;;6157166;23;20430;-75